createdAt,value
2017-10-06T00:01:45.251Z,92.70
2017-10-06T00:04:13.734Z,92.30
2017-10-06T00:06:42.271Z,92.40
2017-10-06T00:09:11.287Z,91.10
2017-10-06T00:11:40.207Z,91.00
2017-10-06T00:14:08.523Z,91.00
2017-10-06T00:16:36.959Z,91.30
2017-10-06T00:19:05.857Z,91.70
2017-10-06T00:21:34.331Z,92.00
2017-10-06T00:24:02.628Z,91.90
2017-10-06T00:26:30.912Z,91.80
2017-10-06T00:28:59.203Z,91.80
2017-10-06T00:31:27.763Z,91.90
2017-10-06T00:33:56.126Z,91.90
2017-10-06T00:36:24.497Z,91.90
2017-10-06T00:38:52.908Z,92.00
2017-10-06T00:41:21.203Z,92.00
2017-10-06T00:43:49.897Z,92.50
2017-10-06T00:46:18.186Z,92.90
2017-10-06T00:48:46.600Z,93.10
2017-10-06T00:51:14.967Z,91.90
2017-10-06T00:53:44.090Z,92.10
2017-10-06T00:56:12.494Z,92.00
2017-10-06T00:58:41.904Z,92.50
2017-10-06T01:01:11.603Z,92.20
2017-10-06T01:03:39.915Z,92.10
2017-10-06T01:06:08.243Z,91.80
2017-10-06T01:08:36.734Z,91.60
2017-10-06T01:11:06.017Z,91.30
2017-10-06T01:13:34.687Z,91.00
2017-10-06T01:16:03.059Z,90.90
2017-10-06T01:18:32.107Z,90.60
2017-10-06T01:21:00.599Z,90.60
2017-10-06T01:23:29.487Z,90.40
2017-10-06T01:25:58.766Z,90.30
2017-10-06T01:28:27.306Z,90.30
2017-10-06T01:30:56.402Z,90.10
2017-10-06T01:33:25.823Z,90.40
2017-10-06T01:35:54.130Z,90.20
2017-10-06T01:38:22.454Z,90.50
2017-10-06T01:40:51.583Z,90.20
2017-10-06T01:43:19.867Z,90.10
2017-10-06T01:45:48.536Z,90.10
2017-10-06T01:48:16.891Z,89.90
2017-10-06T01:50:45.271Z,89.90
2017-10-06T01:53:14.362Z,89.80
2017-10-06T01:55:43.562Z,90.00
2017-10-06T01:58:11.891Z,90.00
2017-10-06T02:00:40.806Z,90.00
2017-10-06T02:03:09.233Z,90.00
2017-10-06T02:05:37.748Z,90.10
2017-10-06T02:08:06.070Z,90.30
2017-10-06T02:10:35.563Z,89.90
2017-10-06T02:13:03.924Z,89.90
2017-10-06T02:15:32.901Z,89.90
2017-10-06T02:18:01.339Z,89.70
2017-10-06T02:20:29.866Z,89.80
2017-10-06T02:22:58.331Z,90.00
2017-10-06T02:25:26.658Z,90.00
2017-10-06T02:27:54.954Z,90.00
2017-10-06T02:30:24.174Z,90.10
2017-10-06T02:32:52.898Z,90.10
2017-10-06T02:35:21.590Z,90.00
2017-10-06T02:37:50.054Z,89.80
2017-10-06T02:40:18.508Z,89.90
2017-10-06T02:42:46.987Z,90.00
2017-10-06T02:45:15.584Z,90.00
2017-10-06T02:47:43.885Z,89.90
2017-10-06T02:50:12.163Z,89.70
2017-10-06T02:52:40.532Z,89.80
2017-10-06T02:55:08.993Z,90.10
2017-10-06T02:57:37.287Z,90.50
2017-10-06T03:00:05.747Z,90.50
2017-10-06T03:02:34.102Z,90.60
2017-10-06T03:05:03.167Z,90.50
2017-10-06T03:07:31.447Z,90.50
2017-10-06T03:10:00.498Z,90.50
2017-10-06T03:12:29.319Z,90.50
2017-10-06T03:14:57.623Z,90.50
2017-10-06T03:17:26.159Z,90.40
2017-10-06T03:19:54.430Z,90.50
2017-10-06T03:22:22.732Z,90.40
2017-10-06T03:24:51.064Z,90.80
2017-10-06T03:27:19.418Z,91.10
2017-10-06T03:29:47.720Z,91.40
2017-10-06T03:32:16.019Z,91.20
2017-10-06T03:34:44.722Z,90.90
2017-10-06T03:37:13.027Z,91.00
2017-10-06T03:39:41.411Z,91.10
2017-10-06T03:42:09.686Z,91.40
2017-10-06T03:44:38.029Z,91.60
2017-10-06T03:47:06.302Z,91.80
2017-10-06T03:49:34.787Z,92.10
2017-10-06T03:52:03.511Z,92.20
2017-10-06T03:54:31.779Z,92.30
2017-10-06T03:57:00.969Z,93.60
2017-10-06T03:59:29.250Z,92.90
2017-10-06T04:01:57.559Z,93.10
2017-10-06T04:07:25.215Z,92.90
2017-10-06T04:09:55.014Z,93.40
2017-10-06T04:12:23.330Z,93.30
2017-10-06T04:14:52.778Z,93.90
2017-10-06T04:17:21.055Z,93.80
2017-10-06T04:19:49.741Z,94.50
2017-10-06T04:22:18.196Z,94.80
2017-10-06T04:24:46.491Z,94.50
2017-10-06T04:27:14.771Z,94.20
2017-10-06T04:29:43.052Z,94.10
2017-10-06T04:32:11.345Z,94.10
2017-10-06T04:34:40.062Z,94.50
2017-10-06T04:37:09.121Z,94.40
2017-10-06T04:39:37.434Z,94.40
2017-10-06T04:42:06.531Z,93.60
2017-10-06T04:44:35.547Z,93.80
2017-10-06T04:47:03.867Z,93.70
2017-10-06T04:49:32.222Z,93.90
2017-10-06T04:52:00.515Z,94.10
2017-10-06T04:54:28.831Z,93.90
2017-10-06T04:56:58.404Z,93.90
2017-10-06T04:59:26.886Z,93.80
2017-10-06T05:01:55.219Z,93.60
2017-10-06T05:04:24.293Z,93.20
2017-10-06T05:06:53.411Z,93.40
2017-10-06T05:09:22.479Z,93.60
2017-10-06T05:11:50.845Z,93.60
2017-10-06T05:14:19.207Z,93.80
2017-10-06T05:16:47.815Z,93.60
2017-10-06T05:19:16.603Z,93.90
2017-10-06T05:21:45.463Z,93.70
2017-10-06T05:24:13.946Z,93.50
2017-10-06T05:26:42.251Z,93.30
2017-10-06T05:29:11.344Z,92.80
2017-10-06T05:31:39.646Z,92.60
2017-10-06T05:34:08.703Z,93.00
2017-10-06T05:36:37.472Z,92.90
2017-10-06T05:39:06.195Z,93.20
2017-10-06T05:41:34.482Z,93.40
2017-10-06T05:44:02.808Z,93.60
2017-10-06T05:46:31.302Z,93.50
2017-10-06T05:48:59.630Z,93.60
2017-10-06T05:51:28.695Z,94.00
2017-10-06T05:53:57.003Z,93.90
2017-10-06T05:56:26.175Z,94.10
2017-10-06T05:58:54.446Z,94.00
2017-10-06T06:01:22.791Z,94.20
2017-10-06T06:03:51.203Z,94.30
2017-10-06T06:06:19.533Z,94.00
2017-10-06T06:08:48.046Z,93.90
2017-10-06T06:11:16.439Z,93.90
2017-10-06T06:13:45.008Z,93.90
2017-10-06T06:16:13.706Z,93.70
2017-10-06T06:18:42.048Z,93.70
2017-10-06T06:21:10.452Z,93.70
2017-10-06T06:23:39.015Z,93.60
2017-10-06T06:26:07.307Z,93.60
2017-10-06T06:28:35.688Z,93.70
2017-10-06T06:31:03.983Z,93.80
2017-10-06T06:33:32.319Z,93.90
2017-10-06T06:36:00.955Z,94.10
2017-10-06T06:38:29.307Z,94.50
2017-10-06T06:40:57.660Z,94.10
2017-10-06T06:43:26.015Z,94.10
2017-10-06T06:45:55.075Z,94.10
2017-10-06T06:48:23.390Z,94.00
2017-10-06T06:50:52.427Z,94.00
2017-10-06T06:53:20.917Z,94.00
2017-10-06T06:55:49.283Z,93.90
2017-10-06T06:58:17.936Z,94.00
2017-10-06T07:00:47.163Z,93.30
2017-10-06T07:03:15.453Z,93.20
2017-10-06T07:05:43.882Z,93.00
2017-10-06T07:08:12.195Z,92.80
2017-10-06T07:10:40.573Z,92.50
2017-10-06T07:13:08.907Z,92.20
2017-10-06T07:15:37.337Z,92.00
2017-10-06T07:18:06.094Z,91.90
2017-10-06T07:20:34.405Z,91.90
2017-10-06T07:23:02.831Z,91.70
2017-10-06T07:25:31.563Z,91.30
2017-10-06T07:27:59.866Z,91.20
2017-10-06T07:30:28.329Z,91.40
2017-10-06T07:32:56.657Z,91.40
2017-10-06T07:35:25.390Z,91.40
2017-10-06T07:37:54.198Z,91.40
2017-10-06T07:40:22.502Z,90.40
2017-10-06T07:42:50.780Z,90.40
2017-10-06T07:45:34.191Z,90.10
2017-10-06T07:48:02.869Z,90.00
2017-10-06T07:50:31.271Z,89.90
2017-10-06T07:52:59.555Z,90.20
2017-10-06T07:55:27.823Z,90.90
2017-10-06T07:57:56.688Z,91.30
2017-10-06T08:00:24.991Z,91.30
2017-10-06T08:02:53.296Z,91.00
2017-10-06T08:05:21.571Z,91.10
2017-10-06T08:07:49.895Z,90.90
2017-10-06T08:10:18.343Z,90.50
2017-10-06T08:12:46.630Z,90.50
2017-10-06T08:15:15.388Z,90.50
2017-10-06T08:17:44.644Z,90.10
2017-10-06T08:20:12.965Z,89.70
2017-10-06T08:22:42.087Z,89.30
2017-10-06T08:25:10.490Z,89.20
2017-10-06T08:27:39.787Z,89.10
2017-10-06T08:30:08.116Z,88.60
2017-10-06T08:32:36.574Z,88.20
2017-10-06T08:35:04.919Z,88.30
2017-10-06T08:37:33.280Z,87.60
2017-10-06T08:40:01.629Z,87.30
2017-10-06T08:42:30.031Z,87.50
2017-10-06T08:44:58.358Z,86.50
2017-10-06T08:47:26.659Z,86.20
2017-10-06T08:49:54.947Z,85.90
2017-10-06T08:52:24.422Z,85.80
2017-10-06T08:54:52.772Z,85.60
2017-10-06T08:57:21.112Z,85.40
2017-10-06T08:59:49.390Z,85.30
2017-10-06T09:02:18.431Z,85.80
2017-10-06T09:04:46.741Z,85.80
2017-10-06T09:07:15.013Z,85.60
2017-10-06T09:09:44.775Z,85.20
2017-10-06T09:12:18.023Z,85.10
2017-10-06T09:14:46.603Z,85.30
2017-10-06T09:17:15.590Z,85.40
2017-10-06T09:19:43.906Z,85.10
2017-10-06T09:22:12.979Z,84.90
2017-10-06T09:24:41.311Z,84.90
2017-10-06T09:27:09.571Z,85.30
2017-10-06T09:29:38.279Z,85.20
2017-10-06T09:32:06.584Z,84.80
2017-10-06T09:34:34.875Z,84.70
2017-10-06T09:37:04.361Z,85.30
2017-10-06T09:39:32.658Z,84.50
2017-10-06T09:42:00.997Z,84.40
2017-10-06T09:44:29.343Z,84.80
2017-10-06T09:46:57.671Z,84.60
2017-10-06T09:49:26.122Z,84.90
2017-10-06T09:51:54.628Z,84.50
2017-10-06T09:54:22.915Z,84.60
2017-10-06T09:56:51.202Z,84.90
2017-10-06T09:59:19.495Z,84.80
2017-10-06T10:01:48.963Z,84.30
2017-10-06T10:04:17.439Z,84.30
2017-10-06T10:06:45.891Z,84.30
2017-10-06T10:09:14.180Z,84.00
2017-10-06T10:11:42.522Z,84.00
2017-10-06T10:14:11.712Z,84.20
2017-10-06T10:16:40.281Z,84.20
2017-10-06T10:19:08.583Z,83.70
2017-10-06T10:21:37.014Z,83.40
2017-10-06T10:24:05.318Z,83.00
2017-10-06T10:26:33.603Z,82.10
2017-10-06T10:29:01.891Z,81.80
2017-10-06T10:31:30.710Z,81.70
2017-10-06T10:33:59.110Z,80.20
2017-10-06T10:36:27.402Z,80.20
2017-10-06T10:38:55.670Z,80.20
2017-10-06T10:41:24.378Z,79.70
2017-10-06T10:43:52.667Z,79.70
2017-10-06T10:46:21.749Z,80.90
2017-10-06T10:48:50.154Z,80.00
2017-10-06T10:51:18.570Z,81.10
2017-10-06T10:53:47.112Z,82.00
2017-10-06T10:56:15.531Z,82.80
2017-10-06T10:58:43.947Z,84.00
2017-10-06T11:01:12.401Z,85.50
2017-10-06T11:03:40.890Z,87.10
2017-10-06T11:06:09.266Z,87.90
2017-10-06T11:08:37.926Z,88.40
2017-10-06T11:11:06.313Z,88.10
2017-10-06T11:13:34.770Z,89.10
2017-10-06T11:16:03.363Z,88.10
2017-10-06T11:18:31.863Z,88.30
2017-10-06T11:21:00.498Z,87.80
2017-10-06T11:23:28.944Z,87.60
2017-10-06T11:25:57.323Z,87.50
2017-10-06T11:28:25.739Z,87.60
2017-10-06T11:30:54.094Z,87.40
2017-10-06T11:33:22.994Z,87.20
2017-10-06T11:35:51.470Z,86.80
2017-10-06T11:38:19.843Z,86.20
2017-10-06T11:40:48.534Z,85.80
2017-10-06T11:43:16.932Z,85.00
2017-10-06T11:45:45.330Z,84.70
2017-10-06T11:48:14.451Z,84.30
2017-10-06T11:50:43.027Z,84.30
2017-10-06T11:53:11.542Z,84.10
2017-10-06T11:55:40.330Z,83.70
2017-10-06T11:58:08.698Z,83.50
2017-10-06T12:00:37.095Z,82.80
2017-10-06T12:03:05.505Z,82.80
2017-10-06T12:05:34.051Z,82.80
2017-10-06T12:08:02.509Z,83.00
2017-10-06T12:10:30.898Z,83.00
2017-10-06T12:12:59.240Z,82.90
2017-10-06T12:15:27.606Z,83.20
2017-10-06T12:17:56.015Z,82.20
2017-10-06T12:20:24.818Z,81.30
2017-10-06T12:22:53.132Z,79.90
2017-10-06T12:25:21.510Z,80.10
2017-10-06T12:27:49.863Z,79.20
2017-10-06T12:30:18.267Z,78.40
2017-10-06T12:32:46.619Z,78.80
2017-10-06T12:35:15.238Z,77.60
2017-10-06T12:37:43.647Z,76.20
2017-10-06T12:40:12.048Z,75.60
2017-10-06T12:42:40.619Z,76.10
2017-10-06T12:45:09.316Z,75.50
2017-10-06T12:47:37.695Z,75.40
2017-10-06T12:50:06.219Z,74.50
2017-10-06T12:52:34.570Z,73.70
2017-10-06T12:55:02.995Z,74.00
2017-10-06T12:57:31.427Z,74.40
2017-10-06T12:59:59.999Z,73.10
2017-10-06T13:02:28.871Z,72.70
2017-10-06T13:04:57.241Z,71.50
2017-10-06T13:07:26.363Z,70.60
2017-10-06T13:09:54.714Z,70.30
2017-10-06T13:12:23.103Z,70.70
2017-10-06T13:14:52.171Z,68.30
2017-10-06T13:17:20.489Z,68.30
2017-10-06T13:19:49.158Z,68.80
2017-10-06T13:22:18.225Z,68.80
2017-10-06T13:24:46.686Z,68.60
2017-10-06T13:27:15.103Z,67.90
2017-10-06T13:29:44.864Z,68.40
2017-10-06T13:32:13.327Z,68.30
2017-10-06T13:34:41.604Z,69.30
2017-10-06T13:37:10.233Z,69.00
2017-10-06T13:39:38.550Z,69.20
2017-10-06T13:42:07.302Z,69.00
2017-10-06T13:44:35.597Z,69.90
2017-10-06T13:47:03.902Z,70.00
2017-10-06T13:49:32.211Z,69.40
2017-10-06T13:52:00.535Z,68.50
2017-10-06T13:54:28.869Z,68.70
2017-10-06T13:56:57.186Z,68.60
2017-10-06T13:59:25.491Z,67.80
2017-10-06T14:01:54.967Z,65.20
2017-10-06T14:04:23.265Z,65.20
2017-10-06T14:06:52.475Z,65.00
2017-10-06T14:09:20.963Z,65.00
2017-10-06T14:11:49.276Z,61.10
2017-10-06T14:14:17.749Z,61.70
2017-10-06T14:16:46.207Z,59.00
2017-10-06T14:19:14.691Z,57.20
2017-10-06T14:21:44.022Z,58.50
2017-10-06T14:24:12.348Z,57.80
2017-10-06T14:26:40.663Z,58.10
2017-10-06T14:29:09.052Z,58.50
2017-10-06T14:31:37.502Z,58.40
2017-10-06T14:34:06.091Z,57.40
2017-10-06T14:36:34.836Z,58.20
2017-10-06T14:39:04.239Z,57.90
2017-10-06T14:41:32.695Z,58.00
2017-10-06T14:44:01.268Z,58.40
2017-10-06T14:46:29.619Z,58.90
2017-10-06T14:48:58.028Z,57.40
2017-10-06T14:51:26.587Z,58.40
2017-10-06T14:53:54.895Z,58.00
2017-10-06T14:56:23.190Z,59.60
2017-10-06T14:58:51.476Z,60.30
2017-10-06T15:01:20.121Z,60.20
2017-10-06T15:03:48.407Z,59.10
2017-10-06T15:06:16.742Z,57.30
2017-10-06T15:08:45.959Z,57.30
2017-10-06T15:11:14.462Z,57.30
2017-10-06T15:13:42.952Z,58.20
2017-10-06T15:16:11.252Z,58.90
2017-10-06T15:18:39.563Z,59.00
2017-10-06T15:21:08.587Z,59.70
2017-10-06T15:23:37.339Z,59.70
2017-10-06T15:26:06.361Z,59.90
2017-10-06T15:28:34.859Z,59.80
2017-10-06T15:31:03.165Z,60.40
2017-10-06T15:33:31.462Z,61.20
2017-10-06T15:36:00.894Z,61.70
2017-10-06T15:38:29.207Z,61.70
2017-10-06T15:40:58.081Z,61.80
2017-10-06T15:43:26.914Z,62.00
2017-10-06T15:45:55.391Z,61.90
2017-10-06T15:48:24.141Z,62.30
2017-10-06T15:50:52.470Z,62.30
2017-10-06T15:53:21.717Z,63.50
2017-10-06T15:55:50.199Z,63.40
2017-10-06T15:58:18.555Z,63.70
2017-10-06T16:00:46.840Z,64.70
2017-10-06T16:03:15.618Z,65.00
2017-10-06T16:05:43.989Z,64.80
2017-10-06T16:11:16.010Z,64.80
2017-10-06T16:13:44.244Z,65.20
2017-10-06T16:16:12.439Z,65.60
2017-10-06T16:18:40.715Z,65.80
2017-10-06T16:21:08.835Z,65.90
2017-10-06T16:23:37.711Z,66.30
2017-10-06T16:26:07.333Z,66.60
2017-10-06T16:28:36.597Z,67.00
2017-10-06T16:31:04.796Z,67.00
2017-10-06T16:33:32.934Z,67.50
2017-10-06T16:36:01.079Z,68.00
2017-10-06T16:38:29.230Z,68.50
2017-10-06T16:40:58.282Z,70.20
2017-10-06T16:43:26.433Z,69.80
2017-10-06T16:45:54.572Z,70.50
2017-10-06T16:48:22.730Z,71.10
2017-10-06T16:50:50.875Z,71.70
2017-10-06T16:53:19.341Z,72.40
2017-10-06T16:55:47.514Z,73.00
2017-10-06T16:58:15.629Z,73.70
2017-10-06T17:00:43.813Z,74.30
2017-10-06T17:03:12.752Z,75.60
2017-10-06T17:05:41.044Z,75.50
2017-10-06T17:08:09.201Z,76.00
2017-10-06T17:10:37.311Z,76.30
2017-10-06T17:13:05.463Z,76.60
2017-10-06T17:15:33.703Z,76.80
2017-10-06T17:18:03.020Z,77.10
2017-10-06T17:20:31.138Z,77.10
2017-10-06T17:22:59.277Z,77.20
2017-10-06T17:25:27.387Z,77.30
2017-10-06T17:27:55.522Z,77.40
2017-10-06T17:30:23.731Z,77.60
2017-10-06T17:32:52.233Z,77.90
2017-10-06T17:35:20.415Z,78.20
2017-10-06T17:37:49.310Z,78.80
2017-10-06T17:40:18.201Z,79.00
2017-10-06T17:42:47.007Z,78.80
2017-10-06T17:45:15.144Z,79.00
2017-10-06T17:47:44.778Z,79.40
2017-10-06T17:50:13.663Z,79.60
2017-10-06T17:52:42.550Z,79.90
2017-10-06T17:55:11.851Z,80.60
2017-10-06T17:57:40.846Z,81.30
2017-10-06T18:00:08.991Z,80.30
2017-10-06T18:02:37.122Z,80.70
2017-10-06T18:05:05.311Z,80.90
2017-10-06T18:07:33.906Z,81.30
2017-10-06T18:10:02.104Z,81.50
2017-10-06T18:12:30.305Z,81.70
2017-10-06T18:14:58.504Z,82.20
2017-10-06T18:17:26.702Z,82.50
2017-10-06T18:19:54.846Z,82.60
2017-10-06T18:22:22.986Z,82.70
2017-10-06T18:24:51.285Z,82.90
2017-10-06T18:27:19.438Z,83.20
2017-10-06T18:29:47.964Z,83.50
2017-10-06T18:32:16.095Z,83.70
2017-10-06T18:34:44.288Z,84.00
2017-10-06T18:37:13.118Z,84.20
2017-10-06T18:39:41.258Z,84.10
2017-10-06T18:42:10.267Z,84.10
2017-10-06T18:44:38.603Z,84.10
2017-10-06T18:47:06.732Z,84.10
2017-10-06T18:49:34.894Z,84.30
2017-10-06T18:52:03.054Z,84.20
2017-10-06T18:54:32.211Z,84.40
2017-10-06T18:57:00.344Z,84.10
2017-10-06T18:59:28.455Z,84.00
2017-10-06T19:01:56.609Z,84.10
2017-10-06T19:04:24.730Z,84.10
2017-10-06T19:06:52.875Z,84.30
2017-10-06T19:09:21.025Z,84.30
2017-10-06T19:11:49.150Z,84.20
2017-10-06T19:14:17.661Z,84.10
2017-10-06T19:16:46.523Z,84.00
2017-10-06T19:19:14.663Z,84.00
2017-10-06T19:21:42.798Z,83.90
2017-10-06T19:24:10.939Z,84.10
2017-10-06T19:26:39.079Z,84.20
2017-10-06T19:29:07.623Z,84.30
2017-10-06T19:31:35.774Z,84.40
2017-10-06T19:34:03.911Z,84.50
2017-10-06T19:36:32.413Z,84.60
2017-10-06T19:39:00.626Z,84.70
2017-10-06T19:41:29.535Z,84.60
2017-10-06T19:43:57.726Z,84.60
2017-10-06T19:46:26.333Z,84.70
2017-10-06T19:48:54.491Z,84.90
2017-10-06T19:51:22.684Z,85.10
2017-10-06T19:53:50.839Z,85.20
2017-10-06T19:56:19.688Z,85.40
2017-10-06T19:58:47.842Z,85.50
2017-10-06T20:01:15.968Z,85.60
2017-10-06T20:03:44.120Z,85.60
2017-10-06T20:06:12.243Z,85.80
2017-10-06T20:08:40.389Z,85.90
2017-10-06T20:11:08.539Z,86.00
2017-10-06T20:13:36.670Z,86.10
2017-10-06T20:16:04.884Z,86.10
2017-10-06T20:18:33.451Z,86.20
2017-10-06T20:21:02.607Z,86.50
2017-10-06T20:23:30.723Z,86.40
2017-10-06T20:25:59.598Z,86.70
2017-10-06T20:28:29.544Z,86.70
2017-10-06T20:30:57.682Z,86.70
2017-10-06T20:33:25.850Z,86.60
2017-10-06T20:35:53.982Z,87.00
2017-10-06T20:38:22.136Z,87.20
2017-10-06T20:40:51.046Z,87.20
2017-10-06T20:43:19.498Z,87.10
2017-10-06T20:45:47.682Z,87.00
2017-10-06T20:48:16.109Z,87.10
2017-10-06T20:50:44.243Z,86.90
2017-10-06T20:53:12.385Z,86.60
2017-10-06T20:55:40.570Z,86.50
2017-10-06T20:58:08.705Z,86.40
2017-10-06T21:00:36.863Z,86.30
2017-10-06T21:03:05.035Z,86.10
2017-10-06T21:05:33.143Z,86.00
2017-10-06T21:08:01.304Z,85.90
2017-10-06T21:10:29.463Z,85.80
2017-10-06T21:12:57.611Z,85.60
2017-10-06T21:15:25.734Z,85.60
2017-10-06T21:17:53.852Z,85.40
2017-10-06T21:20:22.291Z,85.10
2017-10-06T21:22:51.936Z,84.80
2017-10-06T21:25:20.792Z,84.60
2017-10-06T21:27:48.927Z,84.60
2017-10-06T21:30:17.075Z,84.60
2017-10-06T21:32:45.207Z,84.70
2017-10-06T21:35:13.315Z,84.90
2017-10-06T21:37:42.171Z,85.00
2017-10-06T21:40:10.589Z,85.00
2017-10-06T21:42:38.724Z,85.00
2017-10-06T21:45:06.858Z,85.20
2017-10-06T21:47:34.967Z,85.20
2017-10-06T21:50:03.487Z,85.20
2017-10-06T21:52:32.127Z,85.20
2017-10-06T21:55:00.306Z,85.10
2017-10-06T21:57:28.442Z,84.80
2017-10-06T21:59:56.636Z,84.60
2017-10-06T22:02:26.090Z,84.60
2017-10-06T22:04:54.237Z,84.50
2017-10-06T22:07:22.471Z,84.40
2017-10-06T22:09:50.610Z,84.10
2017-10-06T22:12:18.747Z,84.00
2017-10-06T22:14:46.887Z,83.90
2017-10-06T22:17:15.030Z,83.70
2017-10-06T22:19:43.178Z,83.80
2017-10-06T22:22:11.332Z,83.70
2017-10-06T22:24:40.082Z,83.50
2017-10-06T22:27:08.229Z,83.40
2017-10-06T22:29:36.438Z,83.40
2017-10-06T22:32:04.606Z,83.40
2017-10-06T22:34:33.475Z,83.30
2017-10-06T22:37:01.618Z,83.10
2017-10-06T22:39:29.794Z,83.20
2017-10-06T22:41:57.922Z,83.10
2017-10-06T22:44:26.039Z,83.00
2017-10-06T22:46:54.164Z,83.00
2017-10-06T22:49:22.310Z,82.80
2017-10-06T22:51:50.887Z,82.80
2017-10-06T22:54:19.062Z,82.90
2017-10-06T22:56:47.190Z,82.50
2017-10-06T22:59:15.314Z,82.80
2017-10-06T23:01:43.454Z,82.90
2017-10-06T23:04:11.582Z,83.00
2017-10-06T23:06:40.518Z,83.20
2017-10-06T23:09:08.646Z,83.20
2017-10-06T23:11:37.511Z,83.50
2017-10-06T23:14:05.651Z,83.40
2017-10-06T23:16:34.167Z,83.70
2017-10-06T23:19:02.307Z,83.90
2017-10-06T23:21:30.434Z,84.10
2017-10-06T23:23:58.553Z,84.20
2017-10-06T23:26:26.674Z,84.20
2017-10-06T23:28:54.788Z,84.00
2017-10-06T23:31:22.926Z,83.90
2017-10-06T23:33:51.063Z,84.10
2017-10-06T23:36:19.263Z,84.30
2017-10-06T23:38:48.907Z,84.50
2017-10-06T23:41:17.358Z,84.40
2017-10-06T23:43:45.510Z,84.80
2017-10-06T23:46:13.651Z,84.60
2017-10-06T23:48:41.786Z,85.30
2017-10-06T23:51:10.675Z,85.20
2017-10-06T23:53:39.691Z,85.00
2017-10-06T23:56:07.828Z,85.00
2017-10-06T23:58:35.935Z,84.80
